Harmony Sp — 3FWE6 — position and weather

sailwx.info

Track history (hours):
 
Tides and Currents Weather Stations Pressure Air Temp Water Temp Dewpoint Dewpoint Depression Visibility Wind Speed Wind Dir Waves Ship Positions

Harmony Sp

Last reported at 2017-Jan-12 23:27 UTC. Time now 2017-Jan-16 17:22 UTC.
Position N 38°16' W 000°08'.

MMSI: 353359712.

Date/timePositionNaut miles runAvg speedWind from/ knotsBaromVisibWave heightAir tempDewpointWater temp
2017-Jan-12 23:27N 38°16' W 000°08'  
2017-Jan-10 05:09N 38°16' W 000°07'  
2017-Jan-05 07:15N 37°42' W 000°22'710.0
2017-Jan-05 06:33N 37°36' W 000°27'1010.0
2017-Jan-05 05:33N 37°29' W 000°36'1010.4
2017-Jan-05 04:33N 37°22' W 000°46'1110.6
2017-Jan-05 03:33N 37°15' W 000°56'9210.1
2017-Jan-04 18:24N 36°21' W 002°28'13210.8
2017-Jan-04 06:06N 35°59' W 005°10'712.6
2017-Jan-04 05:33N 35°58' W 005°18'1212.1
2017-Jan-04 04:33N 35°56' W 005°33'1110.8
2017-Jan-04 03:31N 35°53' W 005°46'  
Track history (hours):
 
Tides and Currents Weather Stations Pressure Air Temp Water Temp Dewpoint Dewpoint Depression Visibility Wind Speed Wind Dir Waves Ship Positions

Harmony Sp

Last reported at 2017-Jan-12 23:27 UTC. Time now 2017-Jan-16 17:22 UTC.
Position N 38°16' W 000°08'.

MMSI: 353359712.

Date/timePositionNaut miles runAvg speedWind from/ knotsBaromVisibWave heightAir tempDewpointWater temp
2017-Jan-12 23:27N 38°16' W 000°08'  
2017-Jan-10 05:09N 38°16' W 000°07'  
2017-Jan-05 07:15N 37°42' W 000°22'710.0
2017-Jan-05 06:33N 37°36' W 000°27'1010.0
2017-Jan-05 05:33N 37°29' W 000°36'1010.4
2017-Jan-05 04:33N 37°22' W 000°46'1110.6
2017-Jan-05 03:33N 37°15' W 000°56'9210.1
2017-Jan-04 18:24N 36°21' W 002°28'13210.8
2017-Jan-04 06:06N 35°59' W 005°10'712.6
2017-Jan-04 05:33N 35°58' W 005°18'1212.1
2017-Jan-04 04:33N 35°56' W 005°33'1110.8
2017-Jan-04 03:31N 35°53' W 005°46'  

Dump ship's entire track history